Station Historical Data
Daily Summary for September 11, 2017 Units:  English    Metric   Both
« Previous Day
Next Day »
Daily Weekly Monthly Yearly Custom
  High: Low: Average:
Temperature: 74.8 °F 44.3 °F 59.6 °F
Dew Point: 57.7 °F 41.0 °F 49.1 °F
Humidity: 90% 42% 71%
Wind Speed: 6.0mph 0.0mph 1mph
Wind Gust: 8.0mph - -
Wind- - SSE
Pressure: 30.44 in 30.14 in -
Precipitation: 0.00 in    
Historical Graphs
 
 
Tabular Data for September 11, 2017
Time Temperature Dew Point Pressure Wind Wind Speed Wind Gust Humidity Rainfall Rate (Hourly)
00:04 50.7 °F 45.7 °F 30.44 in Calm     83% 0.00 in
00:09 50.6 °F 45.9 °F 30.43 in Calm     84% 0.00 in
00:14 50.6 °F 45.9 °F 30.43 in Calm     84% 0.00 in
00:19 50.8 °F 46.1 °F 30.43 in Calm     84% 0.00 in
00:24 50.8 °F 46.1 °F 30.43 in Calm     84% 0.00 in
00:29 50.8 °F 46.1 °F 30.43 in Calm     84% 0.00 in
00:34 50.7 °F 46.0 °F 30.43 in Calm     84% 0.00 in
00:39 50.7 °F 46.4 °F 30.43 in ENE 1.0 mph 4.0 mph 85% 0.00 in
00:44 50.7 °F 46.0 °F 30.43 in ENE 3.0 mph 3.0 mph 84% 0.00 in
00:49 50.7 °F 46.0 °F 30.43 in Calm   2.0 mph 84% 0.00 in
00:54 50.6 °F 45.9 °F 30.43 in Calm   3.0 mph 84% 0.00 in
00:59 50.2 °F 45.6 °F 30.43 in Calm     84% 0.00 in
01:04 50.0 °F 45.4 °F 30.43 in Calm     84% 0.00 in
01:09 49.8 °F 45.5 °F 30.42 in Calm     85% 0.00 in
01:14 49.8 °F 45.5 °F 30.42 in Calm     85% 0.00 in
01:19 49.7 °F 45.4 °F 30.42 in Calm     85% 0.00 in
01:24 49.6 °F 45.3 °F 30.42 in Calm     85% 0.00 in
01:29 49.6 °F 45.3 °F 30.42 in Calm   3.0 mph 85% 0.00 in
01:34 49.5 °F 45.5 °F 30.42 in ENE 1.0 mph 4.0 mph 86% 0.00 in
01:39 49.5 °F 45.5 °F 30.41 in Calm   3.0 mph 86% 0.00 in
01:44 49.3 °F 45.3 °F 30.41 in ENE 2.0 mph 4.0 mph 86% 0.00 in
01:49 49.3 °F 45.3 °F 30.41 in ENE 1.0 mph 3.0 mph 86% 0.00 in
01:54 49.3 °F 45.3 °F 30.41 in Calm   3.0 mph 86% 0.00 in
01:59 49.1 °F 45.1 °F 30.40 in Calm   3.0 mph 86% 0.00 in
02:04 49.0 °F 45.0 °F 30.40 in Calm   3.0 mph 86% 0.00 in
02:09 48.8 °F 44.8 °F 30.40 in Calm   3.0 mph 86% 0.00 in
02:14 48.8 °F 44.8 °F 30.40 in ENE 1.0 mph 3.0 mph 86% 0.00 in
02:19 48.7 °F 44.7 °F 30.39 in ENE 1.0 mph 3.0 mph 86% 0.00 in
02:29 48.5 °F 44.5 °F 30.39 in Calm     86% 0.00 in
02:34 48.6 °F 44.6 °F 30.39 in Calm     86% 0.00 in
02:39 48.4 °F 44.4 °F 30.39 in Calm     86% 0.00 in
02:44 48.1 °F 44.1 °F 30.39 in Calm     86% 0.00 in
02:49 48.1 °F 44.1 °F 30.39 in Calm     86% 0.00 in
02:54 47.9 °F 43.9 °F 30.39 in Calm     86% 0.00 in
02:59 47.6 °F 43.6 °F 30.38 in Calm     86% 0.00 in
03:04 47.5 °F 43.8 °F 30.38 in Calm     87% 0.00 in
03:09 47.3 °F 43.6 °F 30.38 in Calm     87% 0.00 in
03:14 47.3 °F 43.6 °F 30.38 in Calm     87% 0.00 in
03:19 47.4 °F 43.7 °F 30.38 in Calm     87% 0.00 in
03:24 47.3 °F 43.6 °F 30.38 in Calm     87% 0.00 in
03:29 47.3 °F 43.6 °F 30.38 in Calm     87% 0.00 in
03:34 47.0 °F 43.3 °F 30.37 in Calm     87% 0.00 in
03:39 46.8 °F 43.1 °F 30.37 in Calm     87% 0.00 in
03:44 46.7 °F 43.3 °F 30.37 in Calm     88% 0.00 in
03:49 46.7 °F 43.3 °F 30.36 in Calm     88% 0.00 in
03:54 46.7 °F 43.3 °F 30.36 in Calm     88% 0.00 in
03:59 46.6 °F 43.2 °F 30.36 in Calm     88% 0.00 in
04:04 46.5 °F 43.1 °F 30.36 in Calm     88% 0.00 in
04:09 46.5 °F 43.1 °F 30.36 in Calm     88% 0.00 in
04:14 46.5 °F 43.1 °F 30.36 in Calm     88% 0.00 in
04:19 46.4 °F 43.0 °F 30.36 in Calm     88% 0.00 in
04:24 46.4 °F 43.0 °F 30.35 in Calm     88% 0.00 in
04:29 46.3 °F 42.9 °F 30.35 in Calm     88% 0.00 in
04:34 46.1 °F 42.7 °F 30.35 in Calm     88% 0.00 in
04:39 46.1 °F 42.7 °F 30.35 in Calm     88% 0.00 in
04:44 46.3 °F 42.9 °F 30.35 in Calm     88% 0.00 in
04:49 46.1 °F 42.7 °F 30.35 in Calm     88% 0.00 in
04:54 46.0 °F 42.6 °F 30.35 in Calm     88% 0.00 in
04:59 46.0 °F 42.6 °F 30.35 in Calm     88% 0.00 in
05:04 45.9 °F 42.5 °F 30.34 in Calm     88% 0.00 in
05:09 46.0 °F 42.6 °F 30.34 in Calm     88% 0.00 in
05:14 46.0 °F 42.6 °F 30.34 in Calm     88% 0.00 in
05:19 46.1 °F 42.7 °F 30.34 in Calm     88% 0.00 in
05:24 46.2 °F 42.5 °F 30.34 in Calm     87% 0.00 in
05:29 46.1 °F 42.4 °F 30.34 in Calm     87% 0.00 in
05:34 45.9 °F 42.2 °F 30.35 in Calm     87% 0.00 in
05:39 45.6 °F 42.0 °F 30.35 in Calm     87% 0.00 in
05:44 45.6 °F 42.0 °F 30.34 in Calm     87% 0.00 in
05:49 45.4 °F 41.8 °F 30.35 in Calm     87% 0.00 in
05:54 45.2 °F 41.6 °F 30.35 in Calm     87% 0.00 in
05:59 45.0 °F 41.4 °F 30.35 in Calm     87% 0.00 in
06:04 44.7 °F 41.4 °F 30.36 in Calm     88% 0.00 in
06:14 44.4 °F 41.1 °F 30.36 in Calm     88% 0.00 in
06:20 44.3 °F 41.0 °F 30.36 in Calm     88% 0.00 in
06:29 44.4 °F 41.4 °F 30.36 in Calm     89% 0.00 in
06:34 44.6 °F 41.6 °F 30.36 in Calm     89% 0.00 in
06:39 44.6 °F 41.6 °F 30.36 in Calm     89% 0.00 in
06:44 44.6 °F 41.6 °F 30.37 in Calm     89% 0.00 in
06:49 44.8 °F 41.8 °F 30.37 in Calm     89% 0.00 in
06:54 45.2 °F 42.4 °F 30.37 in Calm     90% 0.00 in
06:59 45.4 °F 42.3 °F 30.37 in Calm     89% 0.00 in
07:04 45.5 °F 42.4 °F 30.37 in Calm     89% 0.00 in
07:09 45.5 °F 42.4 °F 30.38 in Calm     89% 0.00 in
07:14 45.5 °F 42.4 °F 30.38 in Calm     89% 0.00 in
07:19 45.5 °F 42.2 °F 30.39 in Calm     88% 0.00 in
07:24 45.5 °F 42.2 °F 30.39 in Calm     88% 0.00 in
07:29 45.7 °F 42.3 °F 30.40 in Calm     88% 0.00 in
07:34 46.2 °F 43.1 °F 30.40 in Calm     89% 0.00 in
07:39 46.6 °F 43.2 °F 30.40 in Calm     88% 0.00 in
07:44 47.1 °F 43.7 °F 30.40 in Calm     88% 0.00 in
07:49 47.5 °F 43.8 °F 30.39 in Calm     87% 0.00 in
07:54 48.0 °F 44.3 °F 30.39 in Calm     87% 0.00 in
07:59 48.7 °F 44.7 °F 30.39 in Calm     86% 0.00 in
08:04 49.6 °F 45.0 °F 30.39 in Calm     84% 0.00 in
08:09 50.0 °F 45.0 °F 30.40 in Calm     83% 0.00 in
08:14 50.5 °F 45.5 °F 30.40 in Calm   4.0 mph 83% 0.00 in
08:19 51.0 °F 45.7 °F 30.40 in SSW 1.0 mph 2.0 mph 82% 0.00 in
08:24 51.6 °F 46.0 °F 30.40 in Calm   3.0 mph 81% 0.00 in
08:29 52.5 °F 45.8 °F 30.40 in Calm     78% 0.00 in
08:34 52.6 °F 45.9 °F 30.40 in Calm   2.0 mph 78% 0.00 in
08:39 53.1 °F 46.1 °F 30.39 in Calm   1.0 mph 77% 0.00 in
08:44 53.6 °F 45.5 °F 30.39 in Calm     74% 0.00 in
08:49 54.9 °F 46.4 °F 30.38 in Calm     73% 0.00 in
08:54 55.3 °F 46.4 °F 30.39 in Calm     72% 0.00 in
08:59 56.0 °F 47.1 °F 30.38 in Calm     72% 0.00 in
09:04 56.3 °F 46.6 °F 30.38 in Calm     70% 0.00 in
09:09 56.8 °F 47.1 °F 30.38 in Calm     70% 0.00 in
09:14 57.4 °F 46.9 °F 30.38 in Calm     68% 0.00 in
09:19 58.4 °F 47.1 °F 30.38 in Calm     66% 0.00 in
09:24 59.1 °F 48.5 °F 30.38 in Calm     68% 0.00 in
09:29 59.9 °F 48.5 °F 30.38 in Calm     66% 0.00 in
09:34 59.5 °F 48.1 °F 30.38 in Calm   2.0 mph 66% 0.00 in
09:39 59.8 °F 48.0 °F 30.38 in Calm     65% 0.00 in
09:44 60.3 °F 48.5 °F 30.38 in SSE 2.0 mph 5.0 mph 65% 0.00 in
09:49 60.4 °F 48.2 °F 30.38 in Calm   4.0 mph 64% 0.00 in
09:54 60.7 °F 46.7 °F 30.38 in SSW 2.0 mph 7.0 mph 60% 0.00 in
09:59 61.4 °F 47.8 °F 30.38 in SW 1.0 mph 4.0 mph 61% 0.00 in
10:04 61.8 °F 48.2 °F 30.38 in South 3.0 mph 5.0 mph 61% 0.00 in
10:09 61.9 °F 47.4 °F 30.38 in SSW 3.0 mph 5.0 mph 59% 0.00 in
10:14 62.0 °F 47.0 °F 30.38 in South 2.0 mph 5.0 mph 58% 0.00 in
10:19 62.6 °F 49.0 °F 30.38 in South 2.0 mph 5.0 mph 61% 0.00 in
10:24 62.8 °F 48.3 °F 30.37 in SSW 2.0 mph 5.0 mph 59% 0.00 in
10:29 63.2 °F 49.1 °F 30.37 in SSW 2.0 mph 4.0 mph 60% 0.00 in
10:34 62.4 °F 47.4 °F 30.37 in West 1.0 mph 4.0 mph 58% 0.00 in
10:39 63.0 °F 48.0 °F 30.37 in WSW 2.0 mph 4.0 mph 58% 0.00 in
10:44 63.3 °F 48.3 °F 30.37 in WSW 3.0 mph 6.0 mph 58% 0.00 in
10:49 64.5 °F 50.3 °F 30.37 in SW 2.0 mph 4.0 mph 60% 0.00 in
10:54 64.3 °F 49.2 °F 30.36 in SW 2.0 mph 5.0 mph 58% 0.00 in
10:59 63.6 °F 47.6 °F 30.36 in SW 1.0 mph 5.0 mph 56% 0.00 in
11:04 64.5 °F 49.8 °F 30.36 in WSW 3.0 mph 4.0 mph 59% 0.00 in
11:09 64.5 °F 48.4 °F 30.36 in SW 2.0 mph 5.0 mph 56% 0.00 in
11:14 64.4 °F 47.4 °F 30.35 in WSW 2.0 mph 5.0 mph 54% 0.00 in
11:19 64.4 °F 48.8 °F 30.35 in WSW 1.0 mph 4.0 mph 57% 0.00 in
11:24 65.2 °F 49.6 °F 30.34 in Calm   1.0 mph 57% 0.00 in
11:29 65.6 °F 47.5 °F 30.34 in NW 1.0 mph 5.0 mph 52% 0.00 in
11:34 65.4 °F 49.8 °F 30.34 in WNW 3.0 mph 4.0 mph 57% 0.00 in
11:39 66.0 °F 49.4 °F 30.34 in NW 2.0 mph 4.0 mph 55% 0.00 in
11:44 65.5 °F 47.9 °F 30.33 in WNW 2.0 mph 4.0 mph 53% 0.00 in
11:49 65.7 °F 49.1 °F 30.33 in West 1.0 mph 3.0 mph 55% 0.00 in
11:54 65.8 °F 48.2 °F 30.33 in North 2.0 mph 4.0 mph 53% 0.00 in
11:59 66.4 °F 49.2 °F 30.33 in Calm   2.0 mph 54% 0.00 in
12:04 67.0 °F 50.3 °F 30.33 in NW 1.0 mph 4.0 mph 55% 0.00 in
12:09 67.3 °F 49.6 °F 30.33 in West 4.0 mph 5.0 mph 53% 0.00 in
12:14 67.1 °F 52.3 °F 30.33 in West 2.0 mph 5.0 mph 59% 0.00 in
12:19 67.0 °F 49.8 °F 30.33 in NW 2.0 mph 5.0 mph 54% 0.00 in
12:24 67.9 °F 51.6 °F 30.33 in NW 3.0 mph 3.0 mph 56% 0.00 in
12:29 68.0 °F 48.7 °F 30.33 in Calm   4.0 mph 50% 0.00 in
12:34 68.7 °F 51.4 °F 30.33 in NW 3.0 mph 3.0 mph 54% 0.00 in
12:39 68.7 °F 51.4 °F 30.33 in SSW 2.0 mph 4.0 mph 54% 0.00 in
12:44 68.6 °F 49.2 °F 30.32 in SW 2.0 mph 6.0 mph 50% 0.00 in
12:49 68.2 °F 49.4 °F 30.32 in WSW 2.0 mph 6.0 mph 51% 0.00 in
12:54 68.5 °F 49.1 °F 30.31 in SW 2.0 mph 5.0 mph 50% 0.00 in
12:59 68.8 °F 51.0 °F 30.31 in SSW 1.0 mph 3.0 mph 53% 0.00 in
13:04 69.4 °F 51.5 °F 30.31 in WSW 1.0 mph 6.0 mph 53% 0.00 in
13:09 69.7 °F 51.3 °F 30.31 in West 1.0 mph 4.0 mph 52% 0.00 in
13:14 69.0 °F 52.6 °F 30.31 in Calm   1.0 mph 56% 0.00 in
13:19 69.8 °F 50.3 °F 30.31 in NW 1.0 mph 4.0 mph 50% 0.00 in
13:24 70.0 °F 46.5 °F 30.31 in WNW 2.0 mph 4.0 mph 43% 0.00 in
13:29 69.4 °F 51.0 °F 30.30 in WSW 3.0 mph 4.0 mph 52% 0.00 in
13:34 70.1 °F 50.6 °F 30.30 in Calm   4.0 mph 50% 0.00 in
13:39 70.4 °F 49.8 °F 30.30 in NNW 2.0 mph 7.0 mph 48% 0.00 in
13:44 70.7 °F 51.1 °F 30.30 in WNW 2.0 mph 4.0 mph 50% 0.00 in
13:49 70.1 °F 50.6 °F 30.29 in WNW 2.0 mph 4.0 mph 50% 0.00 in
13:54 70.8 °F 51.2 °F 30.29 in West 1.0 mph 4.0 mph 50% 0.00 in
13:59 71.6 °F 53.6 °F 30.29 in West 2.0 mph 6.0 mph 53% 0.00 in
14:04 71.7 °F 51.0 °F 30.29 in Calm   6.0 mph 48% 0.00 in
14:09 71.6 °F 52.0 °F 30.29 in WNW 3.0 mph 6.0 mph 50% 0.00 in
14:14 71.6 °F 49.7 °F 30.28 in WNW 4.0 mph 4.0 mph 46% 0.00 in
14:19 72.0 °F 51.8 °F 30.28 in WNW 2.0 mph 4.0 mph 49% 0.00 in
14:24 72.4 °F 52.7 °F 30.28 in WNW 2.0 mph 4.0 mph 50% 0.00 in
14:29 71.3 °F 49.4 °F 30.28 in WNW 1.0 mph 4.0 mph 46% 0.00 in
14:34 72.2 °F 53.6 °F 30.27 in Calm   2.0 mph 52% 0.00 in
14:39 72.6 °F 50.6 °F 30.27 in North 2.0 mph 5.0 mph 46% 0.00 in
14:44 72.3 °F 52.1 °F 30.27 in WNW 2.0 mph 4.0 mph 49% 0.00 in
14:49 72.5 °F 52.8 °F 30.27 in Calm   3.0 mph 50% 0.00 in
14:54 73.2 °F 52.9 °F 30.26 in WNW 2.0 mph 4.0 mph 49% 0.00 in
14:59 73.0 °F 51.6 °F 30.26 in NW 3.0 mph 4.0 mph 47% 0.00 in
15:04 72.4 °F 49.9 °F 30.26 in WNW 1.0 mph 4.0 mph 45% 0.00 in
15:09 73.5 °F 53.2 °F 30.25 in NW 2.0 mph 4.0 mph 49% 0.00 in
15:14 74.3 °F 51.6 °F 30.25 in ENE 4.0 mph 5.0 mph 45% 0.00 in
15:19 74.0 °F 49.4 °F 30.26 in Calm   6.0 mph 42% 0.00 in
15:24 73.6 °F 52.7 °F 30.25 in ENE 2.0 mph 6.0 mph 48% 0.00 in
15:29 73.7 °F 49.2 °F 30.25 in ENE 2.0 mph 7.0 mph 42% 0.00 in
15:34 73.5 °F 50.2 °F 30.24 in ENE 3.0 mph 7.0 mph 44% 0.00 in
15:39 73.6 °F 49.7 °F 30.24 in ENE 2.0 mph 7.0 mph 43% 0.00 in
15:44 74.1 °F 50.2 °F 30.23 in Calm   3.0 mph 43% 0.00 in
15:49 74.7 °F 51.3 °F 30.23 in NNE 1.0 mph 5.0 mph 44% 0.00 in
15:54 74.7 °F 51.3 °F 30.23 in NE 4.0 mph 7.0 mph 44% 0.00 in
15:59 74.5 °F 51.8 °F 30.23 in ENE 3.0 mph 7.0 mph 45% 0.00 in
16:04 74.1 °F 50.8 °F 30.22 in SSE 2.0 mph 3.0 mph 44% 0.00 in
16:09 74.6 °F 51.9 °F 30.22 in East 1.0 mph 6.0 mph 45% 0.00 in
16:14 74.8 °F 52.6 °F 30.22 in NE 3.0 mph 6.0 mph 46% 0.00 in
16:19 74.4 °F 51.7 °F 30.22 in NE 2.0 mph 8.0 mph 45% 0.00 in
16:24 74.6 °F 53.6 °F 30.22 in NE 6.0 mph 7.0 mph 48% 0.00 in
16:29 74.2 °F 53.2 °F 30.21 in ENE 3.0 mph 7.0 mph 48% 0.00 in
16:34 74.0 °F 52.5 °F 30.21 in NE 2.0 mph 6.0 mph 47% 0.00 in
16:39 74.5 °F 52.9 °F 30.21 in NE 1.0 mph 5.0 mph 47% 0.00 in
16:44 74.4 °F 52.3 °F 30.21 in NE 3.0 mph 8.0 mph 46% 0.00 in
16:49 74.2 °F 51.5 °F 30.21 in NE 3.0 mph 8.0 mph 45% 0.00 in
16:54 74.5 °F 53.5 °F 30.20 in ENE 3.0 mph 4.0 mph 48% 0.00 in
16:59 74.3 °F 53.3 °F 30.20 in NE 2.0 mph 4.0 mph 48% 0.00 in
17:04 74.1 °F 53.2 °F 30.20 in NE 3.0 mph 7.0 mph 48% 0.00 in
17:09 73.7 °F 53.3 °F 30.20 in ENE 2.0 mph 5.0 mph 49% 0.00 in
17:14 73.8 °F 54.5 °F 30.20 in Calm   4.0 mph 51% 0.00 in
17:19 74.0 °F 53.1 °F 30.20 in ENE 2.0 mph 5.0 mph 48% 0.00 in
17:24 73.7 °F 53.9 °F 30.19 in Calm   7.0 mph 50% 0.00 in
17:29 73.9 °F 55.2 °F 30.20 in NNE 1.0 mph 4.0 mph 52% 0.00 in
17:34 73.7 °F 54.4 °F 30.19 in NE 1.0 mph 5.0 mph 51% 0.00 in
17:39 73.9 °F 53.5 °F 30.19 in NE 2.0 mph 5.0 mph 49% 0.00 in
17:44 73.9 °F 54.1 °F 30.19 in ENE 2.0 mph 5.0 mph 50% 0.00 in
17:49 73.4 °F 54.2 °F 30.19 in ENE 1.0 mph 7.0 mph 51% 0.00 in
17:54 72.6 °F 54.5 °F 30.19 in North 3.0 mph 4.0 mph 53% 0.00 in
17:59 72.5 °F 54.4 °F 30.19 in NE 2.0 mph 7.0 mph 53% 0.00 in
18:04 72.4 °F 54.8 °F 30.19 in NE 3.0 mph 7.0 mph 54% 0.00 in
18:09 72.2 °F 54.6 °F 30.19 in ENE 2.0 mph 7.0 mph 54% 0.00 in
18:14 72.0 °F 55.4 °F 30.19 in ENE 3.0 mph 7.0 mph 56% 0.00 in
18:19 71.7 °F 55.7 °F 30.18 in NE 4.0 mph 7.0 mph 57% 0.00 in
18:24 71.6 °F 54.6 °F 30.18 in NE 3.0 mph 7.0 mph 55% 0.00 in
18:29 71.5 °F 55.0 °F 30.18 in NE 2.0 mph 8.0 mph 56% 0.00 in
18:34 71.4 °F 54.9 °F 30.18 in ENE 3.0 mph 8.0 mph 56% 0.00 in
18:39 71.0 °F 55.9 °F 30.18 in ENE 2.0 mph 8.0 mph 59% 0.00 in
18:44 69.6 °F 57.7 °F 30.18 in NE 2.0 mph 5.0 mph 66% 0.00 in
18:49 68.4 °F 57.4 °F 30.18 in NNE 2.0 mph 6.0 mph 68% 0.00 in
18:54 67.5 °F 57.4 °F 30.18 in North 2.0 mph 8.0 mph 70% 0.00 in
18:59 67.0 °F 57.3 °F 30.18 in North 1.0 mph 6.0 mph 71% 0.00 in
19:04 66.6 °F 57.3 °F 30.18 in North 3.0 mph 4.0 mph 72% 0.00 in
19:09 66.2 °F 56.9 °F 30.18 in NNE 2.0 mph 4.0 mph 72% 0.00 in
19:14 65.8 °F 56.9 °F 30.18 in North 2.0 mph 6.0 mph 73% 0.00 in
19:19 65.3 °F 56.4 °F 30.18 in North 2.0 mph 6.0 mph 73% 0.00 in
19:24 65.1 °F 56.6 °F 30.19 in North 2.0 mph 6.0 mph 74% 0.00 in
19:29 64.6 °F 56.1 °F 30.19 in North 4.0 mph 6.0 mph 74% 0.00 in
19:34 64.3 °F 56.2 °F 30.19 in Calm   6.0 mph 75% 0.00 in
19:39 63.9 °F 55.4 °F 30.18 in North 2.0 mph 5.0 mph 74% 0.00 in
19:44 63.6 °F 55.5 °F 30.18 in North 2.0 mph 5.0 mph 75% 0.00 in
19:49 63.2 °F 55.1 °F 30.18 in NNE 2.0 mph 5.0 mph 75% 0.00 in
19:54 62.9 °F 54.9 °F 30.18 in NE 2.0 mph 5.0 mph 75% 0.00 in
19:59 62.7 °F 54.7 °F 30.18 in Calm   3.0 mph 75% 0.00 in
20:04 62.6 °F 54.9 °F 30.18 in NE 1.0 mph 5.0 mph 76% 0.00 in
20:09 62.5 °F 54.5 °F 30.18 in Calm   4.0 mph 75% 0.00 in
20:14 62.3 °F 54.6 °F 30.18 in Calm   5.0 mph 76% 0.00 in
20:19 62.0 °F 54.3 °F 30.18 in NE 1.0 mph 5.0 mph 76% 0.00 in
20:24 62.0 °F 54.3 °F 30.18 in ENE 2.0 mph 7.0 mph 76% 0.00 in
20:29 61.9 °F 54.2 °F 30.18 in ENE 2.0 mph 7.0 mph 76% 0.00 in
20:34 61.8 °F 54.2 °F 30.18 in NE 2.0 mph 7.0 mph 76% 0.00 in
20:39 61.8 °F 54.2 °F 30.18 in NE 1.0 mph 5.0 mph 76% 0.00 in
20:44 61.7 °F 54.4 °F 30.18 in Calm   5.0 mph 77% 0.00 in
20:49 61.6 °F 54.3 °F 30.18 in NE 2.0 mph 7.0 mph 77% 0.00 in
20:54 61.5 °F 54.2 °F 30.18 in ENE 1.0 mph 6.0 mph 77% 0.00 in
20:59 61.3 °F 54.0 °F 30.18 in ENE 2.0 mph 3.0 mph 77% 0.00 in
21:04 61.2 °F 53.9 °F 30.18 in NE 3.0 mph 4.0 mph 77% 0.00 in
21:09 61.1 °F 53.8 °F 30.18 in ENE 4.0 mph 7.0 mph 77% 0.00 in
21:14 61.0 °F 53.7 °F 30.18 in NE 2.0 mph 8.0 mph 77% 0.00 in
21:19 60.9 °F 54.0 °F 30.17 in NE 3.0 mph 8.0 mph 78% 0.00 in
21:24 60.8 °F 53.9 °F 30.17 in ENE 3.0 mph 8.0 mph 78% 0.00 in
21:29 60.8 °F 53.9 °F 30.17 in ENE 3.0 mph 8.0 mph 78% 0.00 in
21:34 60.7 °F 53.8 °F 30.17 in ENE 2.0 mph 5.0 mph 78% 0.00 in
21:39 60.6 °F 53.7 °F 30.17 in ENE 2.0 mph 6.0 mph 78% 0.00 in
21:44 60.6 °F 53.7 °F 30.16 in NE 1.0 mph 6.0 mph 78% 0.00 in
21:49 60.5 °F 53.6 °F 30.16 in NE 2.0 mph 6.0 mph 78% 0.00 in
21:54 60.3 °F 53.8 °F 30.16 in Calm   4.0 mph 79% 0.00 in
21:59 59.9 °F 53.4 °F 30.16 in Calm     79% 0.00 in
22:04 59.9 °F 53.7 °F 30.16 in ENE 2.0 mph 4.0 mph 80% 0.00 in
22:09 59.8 °F 53.6 °F 30.16 in Calm   2.0 mph 80% 0.00 in
22:14 59.7 °F 53.9 °F 30.16 in Calm   2.0 mph 81% 0.00 in
22:19 59.8 °F 54.0 °F 30.16 in Calm   3.0 mph 81% 0.00 in
22:24 59.5 °F 53.7 °F 30.16 in Calm   3.0 mph 81% 0.00 in
22:29 59.4 °F 53.9 °F 30.16 in Calm   3.0 mph 82% 0.00 in
22:34 59.5 °F 54.0 °F 30.16 in Calm   3.0 mph 82% 0.00 in
22:39 59.5 °F 54.0 °F 30.16 in Calm   3.0 mph 82% 0.00 in
22:44 59.4 °F 53.9 °F 30.16 in Calm     82% 0.00 in
22:49 59.1 °F 53.6 °F 30.16 in Calm   3.0 mph 82% 0.00 in
22:54 59.0 °F 53.5 °F 30.16 in Calm   3.0 mph 82% 0.00 in
22:59 58.8 °F 53.6 °F 30.15 in Calm     83% 0.00 in
23:04 58.6 °F 53.5 °F 30.15 in Calm   3.0 mph 83% 0.00 in
23:09 58.4 °F 53.6 °F 30.15 in East 1.0 mph 3.0 mph 84% 0.00 in
23:14 58.4 °F 53.6 °F 30.15 in Calm   3.0 mph 84% 0.00 in
23:19 58.3 °F 53.5 °F 30.15 in Calm     84% 0.00 in
23:29 57.9 °F 53.4 °F 30.15 in Calm   3.0 mph 85% 0.00 in
23:34 57.7 °F 53.2 °F 30.15 in Calm     85% 0.00 in
23:39 57.5 °F 53.0 °F 30.14 in Calm     85% 0.00 in
23:44 57.3 °F 53.1 °F 30.14 in Calm     86% 0.00 in
23:49 57.1 °F 53.0 °F 30.14 in Calm   2.0 mph 86% 0.00 in
23:54 57.1 °F 53.3 °F 30.14 in Calm   1.0 mph 87% 0.00 in
23:59 56.9 °F 53.1 °F 30.14 in Calm   1.0 mph 87% 0.00 in
Buffalo, New York, USA
Compliments of Weather Underground - 2.5 mb